sensor_id;sensor_type;location;lat;lon;timestamp;P1;durP1;ratioP1;P2;durP2;ratioP2
27983;SDS011;15317;50.360;8.726;2024-03-17T00:03:54;6.23;;;5.27;;
27983;SDS011;15317;50.360;8.726;2024-03-17T00:08:56;7.00;;;5.00;;
27983;SDS011;15317;50.360;8.726;2024-03-17T00:13:59;5.63;;;5.03;;
27983;SDS011;15317;50.360;8.726;2024-03-17T00:19:01;6.70;;;5.13;;
27983;SDS011;15317;50.360;8.726;2024-03-17T00:24:04;6.27;;;5.20;;
27983;SDS011;15317;50.360;8.726;2024-03-17T00:29:07;6.40;;;4.70;;
27983;SDS011;15317;50.360;8.726;2024-03-17T00:34:10;7.37;;;5.10;;
27983;SDS011;15317;50.360;8.726;2024-03-17T00:39:12;5.67;;;5.17;;
27983;SDS011;15317;50.360;8.726;2024-03-17T00:44:17;5.10;;;4.50;;
27983;SDS011;15317;50.360;8.726;2024-03-17T00:49:19;5.30;;;4.80;;
27983;SDS011;15317;50.360;8.726;2024-03-17T00:54:22;5.07;;;4.57;;
27983;SDS011;15317;50.360;8.726;2024-03-17T00:59:25;4.83;;;4.40;;
27983;SDS011;15317;50.360;8.726;2024-03-17T01:04:27;5.93;;;4.07;;
27983;SDS011;15317;50.360;8.726;2024-03-17T01:09:30;4.63;;;4.23;;
27983;SDS011;15317;50.360;8.726;2024-03-17T01:14:34;5.03;;;4.43;;
27983;SDS011;15317;50.360;8.726;2024-03-17T01:19:36;5.30;;;4.20;;
27983;SDS011;15317;50.360;8.726;2024-03-17T01:24:38;4.90;;;4.47;;
27983;SDS011;15317;50.360;8.726;2024-03-17T01:29:48;4.77;;;4.37;;
27983;SDS011;15317;50.360;8.726;2024-03-17T01:34:50;5.63;;;4.70;;
27983;SDS011;15317;50.360;8.726;2024-03-17T01:39:52;4.93;;;4.37;;
27983;SDS011;15317;50.360;8.726;2024-03-17T01:44:56;5.00;;;4.60;;
27983;SDS011;15317;50.360;8.726;2024-03-17T01:49:58;4.73;;;4.33;;
27983;SDS011;15317;50.360;8.726;2024-03-17T01:55:01;5.10;;;4.60;;
27983;SDS011;15317;50.360;8.726;2024-03-17T02:00:07;4.93;;;4.43;;
27983;SDS011;15317;50.360;8.726;2024-03-17T02:05:13;5.43;;;4.20;;
27983;SDS011;15317;50.360;8.726;2024-03-17T02:10:15;5.63;;;5.13;;
27983;SDS011;15317;50.360;8.726;2024-03-17T02:15:18;6.37;;;5.87;;
27983;SDS011;15317;50.360;8.726;2024-03-17T02:20:21;6.97;;;5.97;;
27983;SDS011;15317;50.360;8.726;2024-03-17T02:25:45;6.63;;;6.07;;
27983;SDS011;15317;50.360;8.726;2024-03-17T02:30:48;6.90;;;6.20;;
27983;SDS011;15317;50.360;8.726;2024-03-17T02:35:50;6.73;;;6.13;;
27983;SDS011;15317;50.360;8.726;2024-03-17T02:40:54;6.50;;;5.90;;
27983;SDS011;15317;50.360;8.726;2024-03-17T02:45:56;6.70;;;6.10;;
27983;SDS011;15317;50.360;8.726;2024-03-17T02:50:59;7.93;;;7.10;;
27983;SDS011;15317;50.360;8.726;2024-03-17T02:56:02;8.27;;;6.57;;
27983;SDS011;15317;50.360;8.726;2024-03-17T03:01:05;7.73;;;7.03;;
27983;SDS011;15317;50.360;8.726;2024-03-17T03:06:08;7.93;;;6.93;;
27983;SDS011;15317;50.360;8.726;2024-03-17T03:11:14;8.07;;;6.90;;
27983;SDS011;15317;50.360;8.726;2024-03-17T03:16:18;7.90;;;6.97;;
27983;SDS011;15317;50.360;8.726;2024-03-17T03:21:21;6.97;;;6.33;;
27983;SDS011;15317;50.360;8.726;2024-03-17T03:26:24;6.87;;;6.13;;
27983;SDS011;15317;50.360;8.726;2024-03-17T03:31:27;6.33;;;5.83;;
27983;SDS011;15317;50.360;8.726;2024-03-17T03:36:29;6.50;;;5.90;;
27983;SDS011;15317;50.360;8.726;2024-03-17T03:41:33;6.10;;;5.50;;
27983;SDS011;15317;50.360;8.726;2024-03-17T03:46:36;6.83;;;5.67;;
27983;SDS011;15317;50.360;8.726;2024-03-17T03:51:38;6.17;;;5.53;;
27983;SDS011;15317;50.360;8.726;2024-03-17T03:56:41;6.13;;;5.53;;
27983;SDS011;15317;50.360;8.726;2024-03-17T04:01:45;5.83;;;5.33;;
27983;SDS011;15317;50.360;8.726;2024-03-17T04:06:50;6.00;;;5.43;;
27983;SDS011;15317;50.360;8.726;2024-03-17T04:11:53;6.73;;;5.50;;
27983;SDS011;15317;50.360;8.726;2024-03-17T04:16:55;5.73;;;5.23;;
27983;SDS011;15317;50.360;8.726;2024-03-17T04:21:59;5.70;;;5.10;;
27983;SDS011;15317;50.360;8.726;2024-03-17T04:27:02;5.30;;;4.90;;
27983;SDS011;15317;50.360;8.726;2024-03-17T04:32:05;5.63;;;5.13;;
27983;SDS011;15317;50.360;8.726;2024-03-17T04:37:08;5.70;;;5.10;;
27983;SDS011;15317;50.360;8.726;2024-03-17T04:42:14;7.50;;;5.57;;
27983;SDS011;15317;50.360;8.726;2024-03-17T04:47:18;5.83;;;5.33;;
27983;SDS011;15317;50.360;8.726;2024-03-17T04:52:21;6.37;;;5.77;;
27983;SDS011;15317;50.360;8.726;2024-03-17T04:57:24;6.43;;;5.70;;
27983;SDS011;15317;50.360;8.726;2024-03-17T05:02:26;8.00;;;5.90;;
27983;SDS011;15317;50.360;8.726;2024-03-17T05:07:29;6.80;;;6.10;;
27983;SDS011;15317;50.360;8.726;2024-03-17T05:12:32;6.33;;;5.70;;
27983;SDS011;15317;50.360;8.726;2024-03-17T05:17:34;6.30;;;5.70;;
27983;SDS011;15317;50.360;8.726;2024-03-17T05:22:36;6.60;;;6.00;;
27983;SDS011;15317;50.360;8.726;2024-03-17T05:27:40;6.53;;;6.00;;
27983;SDS011;15317;50.360;8.726;2024-03-17T05:32:42;6.70;;;6.10;;
27983;SDS011;15317;50.360;8.726;2024-03-17T05:37:44;7.20;;;6.50;;
27983;SDS011;15317;50.360;8.726;2024-03-17T05:42:48;7.00;;;6.40;;
27983;SDS011;15317;50.360;8.726;2024-03-17T05:47:51;8.50;;;6.93;;
27983;SDS011;15317;50.360;8.726;2024-03-17T05:52:53;7.20;;;6.50;;
27983;SDS011;15317;50.360;8.726;2024-03-17T05:57:56;7.83;;;7.13;;
27983;SDS011;15317;50.360;8.726;2024-03-17T06:02:59;10.43;;;7.80;;
27983;SDS011;15317;50.360;8.726;2024-03-17T06:08:01;9.20;;;7.37;;
27983;SDS011;15317;50.360;8.726;2024-03-17T06:13:06;8.83;;;7.93;;
27983;SDS011;15317;50.360;8.726;2024-03-17T06:18:13;9.50;;;8.60;;
27983;SDS011;15317;50.360;8.726;2024-03-17T06:23:17;8.97;;;8.07;;
27983;SDS011;15317;50.360;8.726;2024-03-17T06:28:21;8.37;;;7.57;;
27983;SDS011;15317;50.360;8.726;2024-03-17T06:33:23;8.77;;;7.97;;
27983;SDS011;15317;50.360;8.726;2024-03-17T06:38:26;8.80;;;8.03;;
27983;SDS011;15317;50.360;8.726;2024-03-17T06:43:29;9.77;;;8.80;;
27983;SDS011;15317;50.360;8.726;2024-03-17T06:48:31;9.60;;;8.60;;
27983;SDS011;15317;50.360;8.726;2024-03-17T06:53:34;12.23;;;9.50;;
27983;SDS011;15317;50.360;8.726;2024-03-17T06:58:38;10.07;;;9.17;;
27983;SDS011;15317;50.360;8.726;2024-03-17T07:03:40;11.03;;;10.03;;
27983;SDS011;15317;50.360;8.726;2024-03-17T07:08:42;11.53;;;9.97;;
27983;SDS011;15317;50.360;8.726;2024-03-17T07:13:46;10.90;;;9.90;;
27983;SDS011;15317;50.360;8.726;2024-03-17T07:18:50;12.27;;;11.17;;
27983;SDS011;15317;50.360;8.726;2024-03-17T07:23:53;11.87;;;9.13;;
27983;SDS011;15317;50.360;8.726;2024-03-17T07:28:56;9.40;;;8.60;;
27983;SDS011;15317;50.360;8.726;2024-03-17T07:33:59;10.30;;;9.30;;
27983;SDS011;15317;50.360;8.726;2024-03-17T07:39:01;9.00;;;8.10;;
27983;SDS011;15317;50.360;8.726;2024-03-17T07:44:05;9.67;;;8.30;;
27983;SDS011;15317;50.360;8.726;2024-03-17T07:49:07;8.13;;;7.40;;
27983;SDS011;15317;50.360;8.726;2024-03-17T07:54:09;7.77;;;7.07;;
27983;SDS011;15317;50.360;8.726;2024-03-17T07:59:15;7.30;;;6.70;;
27983;SDS011;15317;50.360;8.726;2024-03-17T08:04:18;6.47;;;5.87;;
27983;SDS011;15317;50.360;8.726;2024-03-17T08:09:20;6.17;;;5.67;;
27983;SDS011;15317;50.360;8.726;2024-03-17T08:14:24;6.20;;;5.63;;
27983;SDS011;15317;50.360;8.726;2024-03-17T08:19:27;6.37;;;5.77;;
27983;SDS011;15317;50.360;8.726;2024-03-17T08:24:29;5.50;;;5.03;;
27983;SDS011;15317;50.360;8.726;2024-03-17T08:29:33;6.17;;;5.70;;
27983;SDS011;15317;50.360;8.726;2024-03-17T08:34:36;6.27;;;5.67;;
27983;SDS011;15317;50.360;8.726;2024-03-17T08:39:38;5.77;;;5.27;;
27983;SDS011;15317;50.360;8.726;2024-03-17T08:44:41;5.10;;;4.70;;
27983;SDS011;15317;50.360;8.726;2024-03-17T08:49:43;5.10;;;4.70;;
27983;SDS011;15317;50.360;8.726;2024-03-17T08:54:46;5.50;;;5.00;;
27983;SDS011;15317;50.360;8.726;2024-03-17T08:59:50;5.10;;;4.70;;
27983;SDS011;15317;50.360;8.726;2024-03-17T09:04:54;5.00;;;4.60;;
27983;SDS011;15317;50.360;8.726;2024-03-17T09:09:56;5.07;;;4.67;;
27983;SDS011;15317;50.360;8.726;2024-03-17T09:15:00;4.33;;;3.93;;
27983;SDS011;15317;50.360;8.726;2024-03-17T09:20:03;5.20;;;4.43;;
27983;SDS011;15317;50.360;8.726;2024-03-17T09:25:06;4.97;;;4.20;;
27983;SDS011;15317;50.360;8.726;2024-03-17T09:30:10;5.93;;;5.23;;
27983;SDS011;15317;50.360;8.726;2024-03-17T09:35:13;5.27;;;4.77;;
27983;SDS011;15317;50.360;8.726;2024-03-17T09:40:16;5.17;;;4.67;;
27983;SDS011;15317;50.360;8.726;2024-03-17T09:45:20;5.17;;;4.77;;
27983;SDS011;15317;50.360;8.726;2024-03-17T09:50:23;5.60;;;5.10;;
27983;SDS011;15317;50.360;8.726;2024-03-17T09:55:26;5.10;;;4.63;;
27983;SDS011;15317;50.360;8.726;2024-03-17T10:00:30;5.17;;;4.77;;
27983;SDS011;15317;50.360;8.726;2024-03-17T10:05:32;5.83;;;5.23;;
27983;SDS011;15317;50.360;8.726;2024-03-17T10:10:34;5.73;;;5.33;;
27983;SDS011;15317;50.360;8.726;2024-03-17T10:15:39;6.33;;;5.73;;
27983;SDS011;15317;50.360;8.726;2024-03-17T10:20:50;6.23;;;5.70;;
27983;SDS011;15317;50.360;8.726;2024-03-17T10:25:56;5.27;;;4.60;;
27983;SDS011;15317;50.360;8.726;2024-03-17T10:31:00;5.37;;;4.97;;
27983;SDS011;15317;50.360;8.726;2024-03-17T10:36:02;5.30;;;4.90;;
27983;SDS011;15317;50.360;8.726;2024-03-17T10:41:06;5.57;;;5.07;;
27983;SDS011;15317;50.360;8.726;2024-03-17T10:46:12;5.10;;;4.70;;
27983;SDS011;15317;50.360;8.726;2024-03-17T10:51:17;4.93;;;4.53;;
27983;SDS011;15317;50.360;8.726;2024-03-17T10:56:20;5.17;;;4.40;;
27983;SDS011;15317;50.360;8.726;2024-03-17T11:01:23;4.80;;;4.40;;
27983;SDS011;15317;50.360;8.726;2024-03-17T11:06:26;4.63;;;4.27;;
27983;SDS011;15317;50.360;8.726;2024-03-17T11:11:34;5.50;;;5.00;;
27983;SDS011;15317;50.360;8.726;2024-03-17T11:16:39;4.63;;;4.23;;
27983;SDS011;15317;50.360;8.726;2024-03-17T11:21:41;4.87;;;4.53;;
27983;SDS011;15317;50.360;8.726;2024-03-17T11:26:43;6.00;;;5.50;;
27983;SDS011;15317;50.360;8.726;2024-03-17T11:31:46;6.37;;;5.77;;
27983;SDS011;15317;50.360;8.726;2024-03-17T11:36:53;5.50;;;5.00;;
27983;SDS011;15317;50.360;8.726;2024-03-17T11:42:04;5.67;;;5.23;;
27983;SDS011;15317;50.360;8.726;2024-03-17T11:47:12;5.57;;;5.07;;
27983;SDS011;15317;50.360;8.726;2024-03-17T11:52:15;5.80;;;5.40;;
27983;SDS011;15317;50.360;8.726;2024-03-17T11:57:20;5.97;;;5.57;;
27983;SDS011;15317;50.360;8.726;2024-03-17T12:02:26;6.07;;;5.50;;
27983;SDS011;15317;50.360;8.726;2024-03-17T12:07:29;6.70;;;6.20;;
27983;SDS011;15317;50.360;8.726;2024-03-17T12:12:31;6.40;;;5.83;;
27983;SDS011;15317;50.360;8.726;2024-03-17T12:17:37;6.40;;;5.90;;
27983;SDS011;15317;50.360;8.726;2024-03-17T12:22:39;6.10;;;5.60;;
27983;SDS011;15317;50.360;8.726;2024-03-17T12:27:43;6.20;;;5.70;;
27983;SDS011;15317;50.360;8.726;2024-03-17T12:32:47;6.23;;;5.73;;
27983;SDS011;15317;50.360;8.726;2024-03-17T12:37:51;6.40;;;5.90;;
27983;SDS011;15317;50.360;8.726;2024-03-17T12:42:53;6.40;;;5.90;;
27983;SDS011;15317;50.360;8.726;2024-03-17T12:47:56;6.47;;;5.80;;
27983;SDS011;15317;50.360;8.726;2024-03-17T12:52:59;6.53;;;5.80;;
27983;SDS011;15317;50.360;8.726;2024-03-17T12:58:07;6.60;;;6.10;;
27983;SDS011;15317;50.360;8.726;2024-03-17T13:03:30;6.70;;;6.20;;
27983;SDS011;15317;50.360;8.726;2024-03-17T13:08:34;6.37;;;5.87;;
27983;SDS011;15317;50.360;8.726;2024-03-17T13:13:38;6.30;;;5.70;;
27983;SDS011;15317;50.360;8.726;2024-03-17T13:18:41;6.47;;;5.97;;
27983;SDS011;15317;50.360;8.726;2024-03-17T13:23:44;6.97;;;6.27;;
27983;SDS011;15317;50.360;8.726;2024-03-17T13:28:46;6.67;;;6.07;;
27983;SDS011;15317;50.360;8.726;2024-03-17T13:33:49;6.97;;;6.27;;
27983;SDS011;15317;50.360;8.726;2024-03-17T13:38:52;6.47;;;5.87;;
27983;SDS011;15317;50.360;8.726;2024-03-17T13:43:54;6.80;;;5.70;;
27983;SDS011;15317;50.360;8.726;2024-03-17T13:48:59;6.77;;;5.60;;
27983;SDS011;15317;50.360;8.726;2024-03-17T13:54:09;6.40;;;5.90;;
27983;SDS011;15317;50.360;8.726;2024-03-17T13:59:11;6.10;;;5.50;;
27983;SDS011;15317;50.360;8.726;2024-03-17T14:04:15;6.73;;;5.73;;
27983;SDS011;15317;50.360;8.726;2024-03-17T14:09:17;5.97;;;5.37;;
27983;SDS011;15317;50.360;8.726;2024-03-17T14:14:20;6.50;;;5.90;;
27983;SDS011;15317;50.360;8.726;2024-03-17T14:19:23;6.60;;;6.00;;
27983;SDS011;15317;50.360;8.726;2024-03-17T14:24:25;7.20;;;6.50;;
27983;SDS011;15317;50.360;8.726;2024-03-17T14:29:27;7.10;;;6.13;;
27983;SDS011;15317;50.360;8.726;2024-03-17T14:34:31;6.20;;;5.60;;
27983;SDS011;15317;50.360;8.726;2024-03-17T14:39:37;6.30;;;5.80;;
27983;SDS011;15317;50.360;8.726;2024-03-17T14:44:40;7.07;;;6.47;;
27983;SDS011;15317;50.360;8.726;2024-03-17T14:49:44;7.17;;;6.53;;
27983;SDS011;15317;50.360;8.726;2024-03-17T14:54:46;7.57;;;6.87;;
27983;SDS011;15317;50.360;8.726;2024-03-17T14:59:49;7.73;;;7.03;;
27983;SDS011;15317;50.360;8.726;2024-03-17T15:04:52;8.30;;;7.50;;
27983;SDS011;15317;50.360;8.726;2024-03-17T15:09:55;7.07;;;6.47;;
27983;SDS011;15317;50.360;8.726;2024-03-17T15:14:57;10.20;;;7.17;;
27983;SDS011;15317;50.360;8.726;2024-03-17T15:20:00;7.87;;;7.07;;
27983;SDS011;15317;50.360;8.726;2024-03-17T15:25:09;8.77;;;7.47;;
27983;SDS011;15317;50.360;8.726;2024-03-17T15:30:13;11.20;;;7.27;;
27983;SDS011;15317;50.360;8.726;2024-03-17T15:35:17;7.77;;;7.07;;
27983;SDS011;15317;50.360;8.726;2024-03-17T15:40:19;7.50;;;6.90;;
27983;SDS011;15317;50.360;8.726;2024-03-17T15:45:22;9.53;;;7.67;;
27983;SDS011;15317;50.360;8.726;2024-03-17T15:50:27;7.73;;;6.93;;
27983;SDS011;15317;50.360;8.726;2024-03-17T15:55:32;8.60;;;7.70;;
27983;SDS011;15317;50.360;8.726;2024-03-17T16:00:34;8.40;;;7.60;;
27983;SDS011;15317;50.360;8.726;2024-03-17T16:05:38;7.77;;;7.10;;
27983;SDS011;15317;50.360;8.726;2024-03-17T16:10:41;7.43;;;6.80;;
27983;SDS011;15317;50.360;8.726;2024-03-17T16:15:47;8.13;;;7.33;;
27983;SDS011;15317;50.360;8.726;2024-03-17T16:20:57;7.50;;;6.80;;
27983;SDS011;15317;50.360;8.726;2024-03-17T16:26:02;7.70;;;6.97;;
27983;SDS011;15317;50.360;8.726;2024-03-17T16:31:05;7.47;;;6.77;;
27983;SDS011;15317;50.360;8.726;2024-03-17T16:36:09;7.27;;;6.67;;
27983;SDS011;15317;50.360;8.726;2024-03-17T16:41:11;6.97;;;6.37;;
27983;SDS011;15317;50.360;8.726;2024-03-17T16:46:26;7.40;;;6.80;;
27983;SDS011;15317;50.360;8.726;2024-03-17T16:51:47;7.03;;;6.43;;
27983;SDS011;15317;50.360;8.726;2024-03-17T16:56:50;7.67;;;6.90;;
27983;SDS011;15317;50.360;8.726;2024-03-17T17:01:52;7.33;;;6.60;;
27983;SDS011;15317;50.360;8.726;2024-03-17T17:06:56;8.33;;;6.37;;
27983;SDS011;15317;50.360;8.726;2024-03-17T17:11:58;6.20;;;5.60;;
27983;SDS011;15317;50.360;8.726;2024-03-17T17:17:00;6.80;;;6.10;;
27983;SDS011;15317;50.360;8.726;2024-03-17T17:22:06;7.43;;;6.70;;
27983;SDS011;15317;50.360;8.726;2024-03-17T17:27:08;7.10;;;6.50;;
27983;SDS011;15317;50.360;8.726;2024-03-17T17:32:11;7.00;;;6.30;;
27983;SDS011;15317;50.360;8.726;2024-03-17T17:37:14;9.50;;;6.77;;
27983;SDS011;15317;50.360;8.726;2024-03-17T17:42:17;7.30;;;6.43;;
27983;SDS011;15317;50.360;8.726;2024-03-17T17:47:22;7.90;;;7.17;;
27983;SDS011;15317;50.360;8.726;2024-03-17T17:52:26;8.47;;;7.67;;
27983;SDS011;15317;50.360;8.726;2024-03-17T17:57:29;9.97;;;8.13;;
27983;SDS011;15317;50.360;8.726;2024-03-17T18:02:31;8.77;;;7.93;;
27983;SDS011;15317;50.360;8.726;2024-03-17T18:07:35;9.67;;;8.77;;
27983;SDS011;15317;50.360;8.726;2024-03-17T18:12:37;8.43;;;7.77;;
27983;SDS011;15317;50.360;8.726;2024-03-17T18:17:40;8.80;;;7.87;;
27983;SDS011;15317;50.360;8.726;2024-03-17T18:22:44;8.70;;;7.90;;
27983;SDS011;15317;50.360;8.726;2024-03-17T18:27:46;8.73;;;7.93;;
27983;SDS011;15317;50.360;8.726;2024-03-17T18:32:49;10.23;;;9.07;;
27983;SDS011;15317;50.360;8.726;2024-03-17T18:37:53;8.97;;;8.07;;
27983;SDS011;15317;50.360;8.726;2024-03-17T18:42:56;9.10;;;8.30;;
27983;SDS011;15317;50.360;8.726;2024-03-17T18:47:58;9.60;;;8.80;;
27983;SDS011;15317;50.360;8.726;2024-03-17T18:53:02;8.83;;;7.70;;
27983;SDS011;15317;50.360;8.726;2024-03-17T18:58:04;6.97;;;6.30;;
27983;SDS011;15317;50.360;8.726;2024-03-17T19:03:06;7.93;;;7.13;;
27983;SDS011;15317;50.360;8.726;2024-03-17T19:08:10;8.50;;;7.70;;
27983;SDS011;15317;50.360;8.726;2024-03-17T19:13:12;9.20;;;8.23;;
27983;SDS011;15317;50.360;8.726;2024-03-17T19:18:15;10.27;;;8.57;;
27983;SDS011;15317;50.360;8.726;2024-03-17T19:23:19;8.17;;;7.50;;
27983;SDS011;15317;50.360;8.726;2024-03-17T19:28:21;8.77;;;7.87;;
27983;SDS011;15317;50.360;8.726;2024-03-17T19:33:24;7.40;;;6.80;;
27983;SDS011;15317;50.360;8.726;2024-03-17T19:38:28;6.70;;;6.20;;
27983;SDS011;15317;50.360;8.726;2024-03-17T19:43:30;7.63;;;6.80;;
27983;SDS011;15317;50.360;8.726;2024-03-17T19:48:35;7.60;;;6.80;;
27983;SDS011;15317;50.360;8.726;2024-03-17T19:53:38;7.23;;;6.53;;
27983;SDS011;15317;50.360;8.726;2024-03-17T19:58:41;7.60;;;6.80;;
27983;SDS011;15317;50.360;8.726;2024-03-17T20:03:44;7.17;;;6.57;;
27983;SDS011;15317;50.360;8.726;2024-03-17T20:08:47;7.40;;;6.70;;
27983;SDS011;15317;50.360;8.726;2024-03-17T20:13:50;8.33;;;6.50;;
27983;SDS011;15317;50.360;8.726;2024-03-17T20:18:53;7.93;;;7.17;;
27983;SDS011;15317;50.360;8.726;2024-03-17T20:23:58;8.33;;;7.47;;
27983;SDS011;15317;50.360;8.726;2024-03-17T20:29:00;9.03;;;8.23;;
27983;SDS011;15317;50.360;8.726;2024-03-17T20:34:03;7.63;;;7.03;;
27983;SDS011;15317;50.360;8.726;2024-03-17T20:39:07;7.53;;;6.80;;
27983;SDS011;15317;50.360;8.726;2024-03-17T20:44:10;10.03;;;7.23;;
27983;SDS011;15317;50.360;8.726;2024-03-17T20:49:13;8.07;;;7.27;;
27983;SDS011;15317;50.360;8.726;2024-03-17T20:54:16;12.70;;;11.63;;
27983;SDS011;15317;50.360;8.726;2024-03-17T20:59:18;14.17;;;12.77;;
27983;SDS011;15317;50.360;8.726;2024-03-17T21:04:21;9.63;;;8.03;;
27983;SDS011;15317;50.360;8.726;2024-03-17T21:09:24;8.00;;;7.17;;
27983;SDS011;15317;50.360;8.726;2024-03-17T21:14:27;9.67;;;8.63;;
27983;SDS011;15317;50.360;8.726;2024-03-17T21:19:29;7.90;;;7.10;;
27983;SDS011;15317;50.360;8.726;2024-03-17T21:24:33;7.60;;;6.90;;
27983;SDS011;15317;50.360;8.726;2024-03-17T21:29:36;8.43;;;7.67;;
27983;SDS011;15317;50.360;8.726;2024-03-17T21:34:38;7.83;;;7.03;;
27983;SDS011;15317;50.360;8.726;2024-03-17T21:39:42;8.90;;;7.70;;
27983;SDS011;15317;50.360;8.726;2024-03-17T21:44:44;7.90;;;7.20;;
27983;SDS011;15317;50.360;8.726;2024-03-17T21:49:46;9.03;;;8.13;;
27983;SDS011;15317;50.360;8.726;2024-03-17T21:54:51;11.63;;;10.43;;
27983;SDS011;15317;50.360;8.726;2024-03-17T21:59:54;11.17;;;9.97;;
27983;SDS011;15317;50.360;8.726;2024-03-17T22:04:56;10.73;;;9.70;;
27983;SDS011;15317;50.360;8.726;2024-03-17T22:10:00;10.77;;;9.87;;
27983;SDS011;15317;50.360;8.726;2024-03-17T22:15:02;14.97;;;10.70;;
27983;SDS011;15317;50.360;8.726;2024-03-17T22:20:05;11.63;;;10.57;;
27983;SDS011;15317;50.360;8.726;2024-03-17T22:25:11;12.23;;;11.03;;
27983;SDS011;15317;50.360;8.726;2024-03-17T22:30:13;16.60;;;14.97;;
27983;SDS011;15317;50.360;8.726;2024-03-17T22:35:15;17.33;;;15.57;;
27983;SDS011;15317;50.360;8.726;2024-03-17T22:40:19;13.10;;;11.80;;
27983;SDS011;15317;50.360;8.726;2024-03-17T22:45:21;12.67;;;11.40;;
27983;SDS011;15317;50.360;8.726;2024-03-17T22:50:23;14.00;;;12.60;;
27983;SDS011;15317;50.360;8.726;2024-03-17T22:55:27;12.67;;;11.57;;
27983;SDS011;15317;50.360;8.726;2024-03-17T23:00:29;11.73;;;10.67;;
27983;SDS011;15317;50.360;8.726;2024-03-17T23:05:42;11.27;;;10.23;;
27983;SDS011;15317;50.360;8.726;2024-03-17T23:10:46;11.77;;;10.50;;
27983;SDS011;15317;50.360;8.726;2024-03-17T23:15:49;11.20;;;10.10;;
27983;SDS011;15317;50.360;8.726;2024-03-17T23:20:52;11.07;;;9.97;;
27983;SDS011;15317;50.360;8.726;2024-03-17T23:25:56;10.90;;;9.80;;
27983;SDS011;15317;50.360;8.726;2024-03-17T23:30:59;10.47;;;9.57;;
27983;SDS011;15317;50.360;8.726;2024-03-17T23:36:01;11.30;;;10.13;;
27983;SDS011;15317;50.360;8.726;2024-03-17T23:41:05;11.87;;;9.80;;
27983;SDS011;15317;50.360;8.726;2024-03-17T23:46:07;10.83;;;9.83;;
27983;SDS011;15317;50.360;8.726;2024-03-17T23:51:10;11.43;;;10.23;;
27983;SDS011;15317;50.360;8.726;2024-03-17T23:56:14;10.67;;;9.67;;
